createdAt,value
2017-04-24T00:00:35.917Z,0
2017-04-24T00:01:16.433Z,0
2017-04-24T00:01:56.955Z,0
2017-04-24T00:02:37.475Z,0
2017-04-24T00:03:17.997Z,0
2017-04-24T00:03:58.518Z,0
2017-04-24T00:04:39.069Z,0
2017-04-24T00:05:19.615Z,0
2017-04-24T00:06:00.125Z,0
2017-04-24T00:06:40.657Z,0
2017-04-24T00:07:21.209Z,0
2017-04-24T00:08:01.729Z,0
2017-04-24T00:08:42.245Z,0
2017-04-24T00:09:22.777Z,0
2017-04-24T00:10:03.303Z,0
2017-04-24T00:10:43.823Z,0
2017-04-24T00:11:24.333Z,0
2017-04-24T00:12:04.853Z,0
2017-04-24T00:12:45.373Z,0
2017-04-24T00:13:25.889Z,0
2017-04-24T00:14:06.400Z,0
2017-04-24T00:14:46.945Z,0
2017-04-24T00:15:27.505Z,0
2017-04-24T00:16:08.023Z,0
2017-04-24T00:16:48.529Z,0
2017-04-24T00:17:29.041Z,0
2017-04-24T00:18:09.536Z,0
2017-04-24T00:18:50.060Z,0
2017-04-24T00:19:30.586Z,0
2017-04-24T00:20:11.101Z,0
2017-04-24T00:20:51.626Z,0
2017-04-24T00:21:32.155Z,0
2017-04-24T00:22:12.673Z,0
2017-04-24T00:22:53.190Z,0
2017-04-24T00:23:33.705Z,0
2017-04-24T00:24:14.222Z,0
2017-04-24T00:24:54.739Z,0
2017-04-24T00:25:35.263Z,0
2017-04-24T00:26:15.777Z,0
2017-04-24T00:26:56.286Z,0
2017-04-24T00:27:36.801Z,0
2017-04-24T00:28:17.338Z,0
2017-04-24T00:28:57.841Z,0
2017-04-24T00:29:38.355Z,0
2017-04-24T00:30:18.875Z,0
2017-04-24T00:30:59.385Z,0
2017-04-24T00:31:39.902Z,0
2017-04-24T00:32:20.413Z,0
2017-04-24T00:33:00.939Z,0
2017-04-24T00:33:41.470Z,0
2017-04-24T00:34:21.985Z,0
2017-04-24T00:35:02.503Z,0
2017-04-24T00:35:43.026Z,0
2017-04-24T00:36:23.541Z,0
2017-04-24T00:37:04.059Z,0
2017-04-24T00:37:44.582Z,0
2017-04-24T00:38:25.107Z,0
2017-04-24T00:39:05.631Z,0
2017-04-24T00:39:46.155Z,0
2017-04-24T00:40:26.668Z,0
2017-04-24T00:41:07.199Z,0
2017-04-24T00:41:47.700Z,0
2017-04-24T00:42:28.225Z,0
2017-04-24T00:43:08.738Z,0
2017-04-24T00:43:49.258Z,0
2017-04-24T00:44:29.774Z,0
2017-04-24T00:45:10.292Z,0
2017-04-24T00:45:50.804Z,0
2017-04-24T00:46:31.338Z,0
2017-04-24T00:47:11.851Z,0
2017-04-24T00:47:52.376Z,0
2017-04-24T00:48:32.897Z,0
2017-04-24T00:49:13.411Z,0
2017-04-24T00:49:53.929Z,0
2017-04-24T00:50:34.452Z,0
2017-04-24T00:51:14.973Z,0
2017-04-24T00:51:55.489Z,0
2017-04-24T00:52:36.003Z,0
2017-04-24T00:53:16.525Z,0
2017-04-24T00:53:57.041Z,0
2017-04-24T00:54:37.556Z,0
2017-04-24T00:55:18.078Z,0
2017-04-24T00:55:58.593Z,0
2017-04-24T00:56:39.113Z,0
2017-04-24T00:57:19.636Z,0
2017-04-24T00:58:00.159Z,0
2017-04-24T00:58:40.680Z,0
2017-04-24T00:59:21.199Z,0
2017-04-24T01:00:01.715Z,0
2017-04-24T01:00:42.236Z,0
2017-04-24T01:01:22.752Z,0
2017-04-24T01:02:03.265Z,0
2017-04-24T01:02:43.782Z,0
2017-04-24T01:03:24.300Z,0
2017-04-24T01:04:04.812Z,0
2017-04-24T01:04:45.335Z,0
2017-04-24T01:05:25.859Z,0
2017-04-24T01:06:06.380Z,0
2017-04-24T01:06:46.899Z,0
2017-04-24T01:07:27.414Z,0
2017-04-24T01:08:07.936Z,0
2017-04-24T01:08:48.447Z,0
2017-04-24T01:09:28.963Z,0
2017-04-24T01:10:09.482Z,0
2017-04-24T01:10:49.997Z,0
2017-04-24T01:11:30.525Z,0
2017-04-24T01:12:11.044Z,0
2017-04-24T01:12:51.578Z,0
2017-04-24T01:13:32.089Z,0
2017-04-24T01:14:12.608Z,0
2017-04-24T01:14:53.140Z,0
2017-04-24T01:15:33.638Z,0
2017-04-24T01:16:14.175Z,0
2017-04-24T01:16:54.690Z,0
2017-04-24T01:17:35.205Z,0
2017-04-24T01:18:15.738Z,0
2017-04-24T01:18:56.266Z,0
2017-04-24T01:19:36.796Z,0
2017-04-24T01:20:17.320Z,0
2017-04-24T01:20:57.833Z,0
2017-04-24T01:21:38.366Z,0
2017-04-24T01:22:18.883Z,0
2017-04-24T01:22:59.403Z,0
2017-04-24T01:23:39.911Z,0
2017-04-24T01:24:20.428Z,0
2017-04-24T01:25:00.942Z,0
2017-04-24T01:25:41.454Z,0
2017-04-24T01:26:21.971Z,0
2017-04-24T01:27:02.504Z,0
2017-04-24T01:27:43.021Z,0
2017-04-24T01:28:23.545Z,0
2017-04-24T01:29:04.051Z,0
2017-04-24T01:29:44.577Z,0
2017-04-24T01:30:25.092Z,0
2017-04-24T01:31:05.622Z,0
2017-04-24T01:31:46.151Z,0
2017-04-24T01:32:26.671Z,0
2017-04-24T01:33:07.199Z,0
2017-04-24T01:33:47.709Z,0
2017-04-24T01:34:28.224Z,0
2017-04-24T01:35:08.736Z,0
2017-04-24T01:35:49.247Z,0
2017-04-24T01:36:29.763Z,0
2017-04-24T01:37:10.304Z,0
2017-04-24T01:37:50.806Z,0
2017-04-24T01:38:31.325Z,0
2017-04-24T01:39:11.845Z,0
2017-04-24T01:39:52.363Z,0
2017-04-24T01:40:32.962Z,0
2017-04-24T01:41:13.476Z,0
2017-04-24T01:41:53.987Z,0
2017-04-24T01:42:34.508Z,0
2017-04-24T01:43:15.027Z,0
2017-04-24T01:43:55.542Z,0
2017-04-24T01:44:36.054Z,0
2017-04-24T01:45:16.575Z,0
2017-04-24T01:45:57.095Z,0
2017-04-24T01:46:37.616Z,0
2017-04-24T01:47:18.134Z,0
2017-04-24T01:47:58.667Z,0
2017-04-24T01:48:39.184Z,0
2017-04-24T01:49:19.703Z,0
2017-04-24T01:50:00.218Z,0
2017-04-24T01:50:40.733Z,0
2017-04-24T01:51:21.248Z,0
2017-04-24T01:52:01.767Z,0
2017-04-24T01:52:42.282Z,0
2017-04-24T01:53:22.817Z,0
2017-04-24T01:54:03.333Z,0
2017-04-24T01:54:43.846Z,0
2017-04-24T01:55:24.372Z,0
2017-04-24T01:56:04.922Z,0
2017-04-24T01:56:45.437Z,0
2017-04-24T01:57:25.955Z,0
2017-04-24T01:58:06.475Z,0
2017-04-24T01:58:46.992Z,0
2017-04-24T01:59:27.501Z,0
2017-04-24T02:00:08.014Z,0
2017-04-24T02:00:48.537Z,0
2017-04-24T02:01:29.061Z,0
2017-04-24T02:02:09.582Z,0
2017-04-24T02:02:50.095Z,0
2017-04-24T02:03:30.618Z,0
2017-04-24T02:04:11.163Z,0
2017-04-24T02:04:51.701Z,0
2017-04-24T02:05:32.227Z,0
2017-04-24T02:06:12.750Z,0
2017-04-24T02:06:53.266Z,0
2017-04-24T02:07:33.778Z,0
2017-04-24T02:08:14.292Z,0
2017-04-24T02:08:54.811Z,0
2017-04-24T02:09:35.325Z,0
2017-04-24T02:10:15.843Z,0
2017-04-24T02:10:56.355Z,0
2017-04-24T02:11:36.872Z,0
2017-04-24T02:12:17.394Z,0
2017-04-24T02:12:57.913Z,0
2017-04-24T02:13:38.429Z,0
2017-04-24T02:14:18.958Z,0
2017-04-24T02:14:59.488Z,0
2017-04-24T02:15:39.994Z,0
2017-04-24T02:16:20.516Z,0
2017-04-24T02:17:01.035Z,0
2017-04-24T02:17:41.558Z,0
2017-04-24T02:18:22.080Z,0
2017-04-24T02:19:02.587Z,0
2017-04-24T02:19:43.150Z,0
2017-04-24T02:20:23.638Z,0
2017-04-24T02:21:04.152Z,0
2017-04-24T02:21:44.667Z,0
2017-04-24T02:22:25.204Z,0
2017-04-24T02:23:05.709Z,0
2017-04-24T02:23:46.232Z,0
2017-04-24T02:24:26.744Z,0
2017-04-24T02:25:07.275Z,0
2017-04-24T02:25:47.806Z,0
2017-04-24T02:26:28.360Z,0
2017-04-24T02:27:08.879Z,0
2017-04-24T02:27:49.404Z,0
2017-04-24T02:28:29.922Z,0
2017-04-24T02:29:10.452Z,0
2017-04-24T02:29:50.999Z,0
2017-04-24T02:30:31.518Z,0
2017-04-24T02:31:12.038Z,0
2017-04-24T02:31:52.558Z,0
2017-04-24T02:32:33.084Z,0
2017-04-24T02:33:13.589Z,0
2017-04-24T02:33:54.148Z,0
2017-04-24T02:34:34.625Z,0
2017-04-24T02:35:15.138Z,0
2017-04-24T02:35:55.666Z,0
2017-04-24T02:36:36.186Z,0
2017-04-24T02:37:16.704Z,0
2017-04-24T02:37:57.221Z,0
2017-04-24T02:38:37.739Z,0
2017-04-24T02:39:18.257Z,0
2017-04-24T02:39:58.774Z,0
2017-04-24T02:40:39.296Z,0
2017-04-24T02:41:19.814Z,0
2017-04-24T02:42:00.330Z,0
2017-04-24T02:42:40.844Z,0
2017-04-24T02:43:21.370Z,0
2017-04-24T02:44:01.894Z,0
2017-04-24T02:44:42.409Z,0
2017-04-24T02:45:22.948Z,0
2017-04-24T02:46:03.436Z,0
2017-04-24T02:46:43.959Z,0
2017-04-24T02:47:24.468Z,0
2017-04-24T02:48:04.986Z,0
2017-04-24T02:48:45.611Z,0
2017-04-24T02:49:26.039Z,0
2017-04-24T02:50:06.555Z,0
2017-04-24T02:50:47.080Z,0
2017-04-24T02:51:27.607Z,0
2017-04-24T02:52:08.132Z,0
2017-04-24T02:52:48.660Z,0
2017-04-24T02:53:29.175Z,0
2017-04-24T02:54:09.693Z,0
2017-04-24T02:54:50.207Z,0
2017-04-24T02:55:30.729Z,0
2017-04-24T02:56:11.276Z,0
2017-04-24T02:56:51.791Z,0
2017-04-24T02:57:32.312Z,0
2017-04-24T02:58:12.827Z,0
2017-04-24T02:58:53.350Z,0
2017-04-24T02:59:33.874Z,0
2017-04-24T03:00:14.405Z,0
2017-04-24T03:00:54.935Z,0
2017-04-24T03:01:35.471Z,0
2017-04-24T03:02:15.962Z,0
2017-04-24T03:02:56.483Z,0
2017-04-24T03:03:36.992Z,0
2017-04-24T03:04:17.520Z,0
2017-04-24T03:04:58.034Z,0
2017-04-24T03:05:38.657Z,0
2017-04-24T03:06:19.165Z,0
2017-04-24T03:06:59.678Z,0
2017-04-24T03:07:40.207Z,0
2017-04-24T03:08:20.720Z,0
2017-04-24T03:09:01.237Z,0
2017-04-24T03:09:41.771Z,0
2017-04-24T03:10:22.296Z,0
2017-04-24T03:11:02.816Z,0
2017-04-24T03:11:43.356Z,0
2017-04-24T03:12:23.887Z,0
2017-04-24T03:13:04.383Z,0
2017-04-24T03:13:44.903Z,0
2017-04-24T03:14:25.441Z,0
2017-04-24T03:15:05.991Z,0
2017-04-24T03:15:46.483Z,0
2017-04-24T03:16:27.005Z,0
2017-04-24T03:17:07.536Z,0
2017-04-24T03:17:48.036Z,0
2017-04-24T03:18:28.561Z,0
2017-04-24T03:19:09.110Z,0
2017-04-24T03:19:49.687Z,0
2017-04-24T03:20:30.189Z,0
2017-04-24T03:21:10.701Z,0
2017-04-24T03:21:51.225Z,0
2017-04-24T03:22:31.745Z,0
2017-04-24T03:23:12.269Z,0
2017-04-24T03:23:52.788Z,0
2017-04-24T03:24:33.313Z,0
2017-04-24T03:25:13.823Z,0
2017-04-24T03:25:54.339Z,0
2017-04-24T03:26:34.875Z,0
2017-04-24T03:27:15.399Z,0
2017-04-24T03:27:55.908Z,0
2017-04-24T03:28:36.431Z,0
2017-04-24T03:29:16.950Z,0
2017-04-24T03:29:57.474Z,0
2017-04-24T03:30:37.988Z,0
2017-04-24T03:31:18.520Z,0
2017-04-24T03:31:59.161Z,0
2017-04-24T03:32:39.861Z,0
2017-04-24T03:33:20.412Z,0
2017-04-24T03:34:00.955Z,0
2017-04-24T03:34:41.477Z,0
2017-04-24T03:35:22.007Z,0
2017-04-24T03:36:02.530Z,0
2017-04-24T03:36:43.045Z,0
2017-04-24T03:37:23.564Z,0
2017-04-24T03:38:04.087Z,0
2017-04-24T03:38:45.991Z,0
2017-04-24T03:39:25.760Z,0
2017-04-24T03:40:06.420Z,0
2017-04-24T03:40:46.911Z,0
2017-04-24T03:41:27.432Z,0
2017-04-24T03:42:07.944Z,0
2017-04-24T03:42:48.496Z,0
2017-04-24T03:43:29.009Z,0
2017-04-24T03:44:09.540Z,0
2017-04-24T03:44:50.111Z,0
2017-04-24T03:45:30.658Z,0
2017-04-24T03:46:11.419Z,0
2017-04-24T03:46:51.942Z,0
2017-04-24T03:47:32.457Z,0
2017-04-24T03:48:12.964Z,0
2017-04-24T03:48:53.478Z,0
2017-04-24T03:49:34.058Z,0
2017-04-24T03:50:14.536Z,0
2017-04-24T03:50:55.333Z,0
2017-04-24T03:51:35.811Z,0
2017-04-24T03:52:16.208Z,0
2017-04-24T03:52:56.718Z,0
2017-04-24T03:53:37.230Z,0
2017-04-24T03:54:17.757Z,0
2017-04-24T03:54:58.275Z,0
2017-04-24T03:55:38.799Z,0
2017-04-24T03:56:19.307Z,0
2017-04-24T03:56:59.887Z,0
2017-04-24T03:57:40.396Z,0
2017-04-24T03:58:21.181Z,0
2017-04-24T03:59:01.797Z,0
2017-04-24T03:59:42.302Z,0
2017-04-24T04:00:22.817Z,0
2017-04-24T04:01:03.338Z,0
2017-04-24T04:01:43.856Z,0
2017-04-24T04:02:24.570Z,0
2017-04-24T04:03:05.266Z,0
2017-04-24T04:03:45.938Z,0
2017-04-24T04:04:26.470Z,0
2017-04-24T04:05:06.978Z,0
2017-04-24T04:05:47.498Z,0
2017-04-24T04:06:28.015Z,0
2017-04-24T04:07:08.530Z,0
2017-04-24T04:07:49.052Z,0
2017-04-24T04:08:29.749Z,0
2017-04-24T04:09:10.422Z,0
2017-04-24T04:09:50.950Z,0
2017-04-24T04:10:31.493Z,0
2017-04-24T04:11:12.020Z,0
2017-04-24T04:11:52.530Z,5
2017-04-24T04:12:33.042Z,5
2017-04-24T04:13:13.561Z,5
2017-04-24T04:13:54.084Z,5
2017-04-24T04:14:34.819Z,5
2017-04-24T04:15:15.342Z,5
2017-04-24T04:15:56.754Z,5
2017-04-24T04:16:37.271Z,5
2017-04-24T04:17:17.927Z,5
2017-04-24T04:17:58.453Z,5
2017-04-24T04:18:38.980Z,5
2017-04-24T04:19:19.502Z,5
2017-04-24T04:20:00.421Z,10
2017-04-24T04:20:41.000Z,10
2017-04-24T04:23:19.877Z,10
2017-04-24T04:24:00.394Z,10
2017-04-24T04:24:40.912Z,10
2017-04-24T04:25:21.436Z,15
2017-04-24T04:26:01.949Z,15
2017-04-24T04:26:42.449Z,15
2017-04-24T04:27:22.974Z,15
2017-04-24T04:28:03.491Z,15
2017-04-24T04:28:44.033Z,15
2017-04-24T04:29:24.568Z,15
2017-04-24T04:30:05.082Z,20
2017-04-24T04:30:45.617Z,20
2017-04-24T04:31:26.146Z,20
2017-04-24T04:32:06.660Z,20
2017-04-24T04:32:47.167Z,20
2017-04-24T04:33:27.673Z,20
2017-04-24T04:34:08.200Z,20
2017-04-24T04:34:48.717Z,25
2017-04-24T04:37:27.494Z,25
2017-04-24T04:38:08.007Z,25
2017-04-24T04:38:48.551Z,30
2017-04-24T04:39:29.790Z,30
2017-04-24T04:40:09.576Z,30
2017-04-24T04:40:50.102Z,30
2017-04-24T04:41:30.619Z,30
2017-04-24T04:42:11.128Z,30
2017-04-24T04:42:51.665Z,35
2017-04-24T04:43:32.182Z,35
2017-04-24T04:44:12.692Z,35
2017-04-24T04:44:53.211Z,35
2017-04-24T04:45:33.740Z,35
2017-04-24T04:46:14.262Z,35
2017-04-24T04:46:54.777Z,40
2017-04-24T04:47:35.300Z,40
2017-04-24T04:48:15.811Z,40
2017-04-24T04:48:56.327Z,40
2017-04-24T04:49:36.850Z,40
2017-04-24T04:50:17.379Z,40
2017-04-24T04:50:57.899Z,40
2017-04-24T04:51:38.418Z,45
2017-04-24T04:52:18.936Z,45
2017-04-24T04:52:59.453Z,45
2017-04-24T04:53:39.967Z,45
2017-04-24T04:54:20.477Z,45
2017-04-24T04:55:00.995Z,45
2017-04-24T04:55:41.506Z,50
2017-04-24T04:56:22.034Z,50
2017-04-24T04:57:02.548Z,50
2017-04-24T04:57:43.065Z,50
2017-04-24T04:58:23.603Z,50
2017-04-24T04:59:04.130Z,50
2017-04-24T04:59:44.647Z,50
2017-04-24T05:00:25.183Z,55
2017-04-24T05:01:05.720Z,55
2017-04-24T05:01:46.234Z,55
2017-04-24T05:02:26.748Z,55
2017-04-24T05:03:07.276Z,55
2017-04-24T05:03:47.790Z,55
2017-04-24T05:04:28.311Z,55
2017-04-24T05:05:08.844Z,60
2017-04-24T05:05:49.366Z,60
2017-04-24T05:06:29.882Z,60
2017-04-24T05:07:10.401Z,60
2017-04-24T05:07:50.917Z,60
2017-04-24T05:08:31.439Z,60
2017-04-24T05:09:11.963Z,60
2017-04-24T05:09:52.491Z,65
2017-04-24T05:10:33.015Z,65
2017-04-24T05:11:13.518Z,65
2017-04-24T05:11:54.039Z,65
2017-04-24T05:12:34.562Z,65
2017-04-24T05:13:15.081Z,65
2017-04-24T05:13:55.606Z,65
2017-04-24T05:14:36.116Z,65
2017-04-24T05:15:16.641Z,65
2017-04-24T05:15:57.161Z,70
2017-04-24T05:16:37.666Z,70
2017-04-24T05:17:18.182Z,70
2017-04-24T05:17:58.685Z,70
2017-04-24T05:18:39.214Z,70
2017-04-24T05:19:19.712Z,70
2017-04-24T05:20:00.228Z,70
2017-04-24T05:20:40.730Z,70
2017-04-24T05:21:21.255Z,70
2017-04-24T05:22:01.803Z,75
2017-04-24T05:22:42.286Z,75
2017-04-24T05:23:22.819Z,75
2017-04-24T05:24:03.373Z,75
2017-04-24T05:24:43.902Z,75
2017-04-24T05:25:24.421Z,75
2017-04-24T05:26:04.948Z,75
2017-04-24T05:26:45.468Z,75
2017-04-24T05:27:26.036Z,75
2017-04-24T05:28:06.560Z,80
2017-04-24T05:28:47.076Z,80
2017-04-24T05:29:27.589Z,80
2017-04-24T05:30:08.105Z,80
2017-04-24T05:30:48.632Z,80
2017-04-24T05:31:29.363Z,80
2017-04-24T05:32:09.881Z,80
2017-04-24T05:32:50.430Z,85
2017-04-24T05:33:30.946Z,85
2017-04-24T05:34:11.470Z,85
2017-04-24T05:34:51.985Z,95
2017-04-24T05:35:32.786Z,105
2017-04-24T05:36:13.306Z,115
2017-04-24T05:36:53.839Z,120
2017-04-24T05:37:34.344Z,120
2017-04-24T05:38:14.851Z,120
2017-04-24T05:38:55.371Z,130
2017-04-24T05:39:35.956Z,135
2017-04-24T05:40:16.527Z,140
2017-04-24T05:40:57.099Z,145
2017-04-24T05:41:37.610Z,145
2017-04-24T05:42:18.131Z,150
2017-04-24T05:42:58.655Z,150
2017-04-24T05:43:39.156Z,145
2017-04-24T05:44:19.667Z,145
2017-04-24T05:45:00.205Z,140
2017-04-24T05:45:40.727Z,135
2017-04-24T05:46:21.239Z,130
2017-04-24T05:47:01.755Z,135
2017-04-24T05:47:42.278Z,135
2017-04-24T05:48:22.801Z,135
2017-04-24T05:49:03.322Z,135
2017-04-24T05:49:43.852Z,130
2017-04-24T05:50:24.376Z,130
2017-04-24T05:51:04.886Z,125
2017-04-24T05:51:45.429Z,125
2017-04-24T05:52:25.936Z,125
2017-04-24T05:53:06.448Z,120
2017-04-24T05:53:46.954Z,120
2017-04-24T05:54:27.547Z,115
2017-04-24T05:55:08.060Z,115
2017-04-24T05:55:48.549Z,110
2017-04-24T05:56:29.120Z,110
2017-04-24T05:57:09.570Z,105
2017-04-24T05:57:50.065Z,105
2017-04-24T05:58:30.580Z,105
2017-04-24T05:59:11.096Z,105
2017-04-24T05:59:51.611Z,105
2017-04-24T06:00:32.147Z,110
2017-04-24T06:01:12.676Z,110
2017-04-24T06:01:53.199Z,115
2017-04-24T06:02:33.696Z,115
2017-04-24T06:03:14.222Z,120
2017-04-24T06:03:54.752Z,125
2017-04-24T06:04:35.299Z,125
2017-04-24T06:05:15.837Z,130
2017-04-24T06:05:56.306Z,130
2017-04-24T06:08:14.762Z,125
2017-04-24T06:08:55.277Z,125
2017-04-24T06:09:35.790Z,120
2017-04-24T06:10:16.300Z,120
2017-04-24T06:10:56.854Z,115
2017-04-24T06:11:37.384Z,115
2017-04-24T06:12:17.927Z,115
2017-04-24T06:12:58.433Z,110
2017-04-24T06:13:38.950Z,110
2017-04-24T06:14:19.471Z,110
2017-04-24T06:14:59.994Z,110
2017-04-24T06:15:40.528Z,110
2017-04-24T06:16:21.052Z,110
2017-04-24T06:17:01.577Z,110
2017-04-24T06:17:42.090Z,115
2017-04-24T06:18:22.613Z,115
2017-04-24T06:19:03.127Z,110
2017-04-24T06:19:43.633Z,110
2017-04-24T06:20:24.235Z,115
2017-04-24T06:21:04.741Z,115
2017-04-24T06:21:45.260Z,115
2017-04-24T06:22:25.781Z,115
2017-04-24T06:23:06.299Z,115
2017-04-24T06:23:46.810Z,115
2017-04-24T06:24:27.373Z,115
2017-04-24T06:25:07.955Z,115
2017-04-24T06:25:48.543Z,115
2017-04-24T06:26:28.976Z,120
2017-04-24T06:27:09.609Z,120
2017-04-24T06:27:50.105Z,120
2017-04-24T06:28:31.335Z,120
2017-04-24T06:29:11.938Z,120
2017-04-24T06:29:52.834Z,125
2017-04-24T06:30:33.350Z,125
2017-04-24T06:31:13.894Z,125
2017-04-24T06:31:54.443Z,130
2017-04-24T06:32:34.963Z,130
2017-04-24T06:33:15.466Z,135
2017-04-24T06:33:56.074Z,135
2017-04-24T06:34:36.610Z,140
2017-04-24T06:35:17.338Z,145
2017-04-24T06:35:57.784Z,150
2017-04-24T06:38:26.209Z,165
2017-04-24T06:39:06.794Z,170
2017-04-24T06:39:47.359Z,170
2017-04-24T06:40:28.259Z,175
2017-04-24T06:41:08.768Z,180
2017-04-24T06:41:49.294Z,180
2017-04-24T06:42:29.833Z,185
2017-04-24T06:45:03.761Z,195
2017-04-24T06:47:37.317Z,205
2017-04-24T06:48:17.903Z,205
2017-04-24T06:48:58.537Z,210
2017-04-24T06:49:39.041Z,210
2017-04-24T06:50:19.571Z,210
2017-04-24T06:51:00.081Z,210
2017-04-24T06:51:41.018Z,210
2017-04-24T06:52:21.534Z,210
2017-04-24T06:53:02.639Z,210
2017-04-24T06:53:42.620Z,210
2017-04-24T06:54:23.208Z,210
2017-04-24T06:55:03.843Z,210
2017-04-24T06:55:44.250Z,210
2017-04-24T06:56:24.743Z,210
2017-04-24T06:58:43.996Z,210
2017-04-24T06:59:24.521Z,210
2017-04-24T07:00:05.247Z,210
2017-04-24T07:00:45.742Z,205
2017-04-24T07:01:26.252Z,205
2017-04-24T07:02:06.774Z,205
2017-04-24T07:02:47.305Z,205
2017-04-24T07:03:27.980Z,205
2017-04-24T07:04:08.479Z,205
2017-04-24T07:04:48.998Z,205
2017-04-24T07:05:29.511Z,215
2017-04-24T07:06:10.033Z,210
2017-04-24T07:06:50.548Z,210
2017-04-24T07:07:31.066Z,210
2017-04-24T07:08:11.575Z,210
2017-04-24T07:08:52.088Z,210
2017-04-24T07:09:32.623Z,210
2017-04-24T07:10:13.130Z,210
2017-04-24T07:10:53.641Z,210
2017-04-24T07:11:34.170Z,210
2017-04-24T07:12:14.697Z,210
2017-04-24T07:12:55.207Z,210
2017-04-24T07:13:35.730Z,210
2017-04-24T07:14:16.281Z,210
2017-04-24T07:14:56.801Z,210
2017-04-24T07:15:37.320Z,210
2017-04-24T07:16:17.841Z,210
2017-04-24T07:16:58.348Z,210
2017-04-24T07:17:38.860Z,210
2017-04-24T07:18:19.384Z,210
2017-04-24T07:18:59.904Z,210
2017-04-24T07:19:40.421Z,210
2017-04-24T07:20:20.952Z,205
2017-04-24T07:21:01.478Z,205
2017-04-24T07:21:41.990Z,205
2017-04-24T07:22:22.513Z,205
2017-04-24T07:23:03.033Z,205
2017-04-24T07:23:43.565Z,205
2017-04-24T07:24:24.094Z,200
2017-04-24T07:25:04.626Z,200
2017-04-24T07:25:45.156Z,200
2017-04-24T07:26:25.671Z,200
2017-04-24T07:27:06.194Z,200
2017-04-24T07:27:46.712Z,200
2017-04-24T07:28:27.227Z,200
2017-04-24T07:29:07.772Z,200
2017-04-24T07:29:48.284Z,195
2017-04-24T07:30:28.799Z,195
2017-04-24T07:31:09.325Z,195
2017-04-24T07:31:49.840Z,195
2017-04-24T07:32:30.347Z,190
2017-04-24T07:33:10.870Z,190
2017-04-24T07:33:51.397Z,190
2017-04-24T07:34:31.932Z,190
2017-04-24T07:35:12.445Z,190
2017-04-24T07:35:52.962Z,190
2017-04-24T07:36:33.480Z,185
2017-04-24T07:37:14.003Z,185
2017-04-24T07:37:54.513Z,185
2017-04-24T07:38:35.025Z,185
2017-04-24T07:39:15.542Z,185
2017-04-24T07:39:56.055Z,180
2017-04-24T07:40:36.595Z,180
2017-04-24T07:41:17.095Z,180
2017-04-24T07:41:57.626Z,180
2017-04-24T07:42:38.164Z,180
2017-04-24T07:43:18.704Z,175
2017-04-24T07:43:59.200Z,175
2017-04-24T07:44:39.723Z,175
2017-04-24T07:45:20.260Z,175
2017-04-24T07:46:00.793Z,170
2017-04-24T07:46:41.306Z,170
2017-04-24T07:47:21.824Z,170
2017-04-24T07:48:02.342Z,170
2017-04-24T07:48:42.862Z,170
2017-04-24T07:49:23.374Z,170
2017-04-24T07:50:03.898Z,170
2017-04-24T07:50:44.417Z,170
2017-04-24T07:51:24.948Z,170
2017-04-24T07:52:05.494Z,170
2017-04-24T07:52:46.005Z,165
2017-04-24T07:53:26.542Z,165
2017-04-24T07:54:07.062Z,165
2017-04-24T07:54:47.589Z,165
2017-04-24T07:55:28.136Z,165
2017-04-24T07:56:08.645Z,160
2017-04-24T07:56:49.153Z,160
2017-04-24T07:57:29.682Z,160
2017-04-24T07:58:10.194Z,160
2017-04-24T07:58:50.716Z,155
2017-04-24T07:59:31.230Z,150
2017-04-24T08:00:11.749Z,145
2017-04-24T08:00:52.269Z,145
2017-04-24T08:01:32.782Z,135
2017-04-24T08:02:13.304Z,135
2017-04-24T08:02:53.830Z,130
2017-04-24T08:03:34.341Z,130
2017-04-24T08:04:14.862Z,130
2017-04-24T08:04:55.403Z,130
2017-04-24T08:05:35.924Z,130
2017-04-24T08:06:16.447Z,130
2017-04-24T08:06:56.965Z,130
2017-04-24T08:07:37.487Z,130
2017-04-24T08:08:18.016Z,130
2017-04-24T08:08:58.550Z,130
2017-04-24T08:09:39.066Z,130
2017-04-24T08:10:19.583Z,125
2017-04-24T08:11:00.098Z,130
2017-04-24T08:11:40.614Z,130
2017-04-24T08:12:21.121Z,130
2017-04-24T08:13:01.640Z,130
2017-04-24T08:13:42.176Z,130
2017-04-24T08:14:22.684Z,130
2017-04-24T08:15:03.219Z,130
2017-04-24T08:15:43.727Z,125
2017-04-24T08:16:24.264Z,125
2017-04-24T08:17:04.781Z,125
2017-04-24T08:17:45.313Z,125
2017-04-24T08:18:25.860Z,125
2017-04-24T08:19:06.348Z,125
2017-04-24T08:19:46.877Z,125
2017-04-24T08:20:27.391Z,120
2017-04-24T08:21:07.910Z,120
2017-04-24T08:21:48.418Z,120
2017-04-24T08:22:28.938Z,120
2017-04-24T08:23:09.450Z,120
2017-04-24T08:23:49.969Z,120
2017-04-24T08:24:30.499Z,120
2017-04-24T08:25:11.024Z,120
2017-04-24T08:25:51.547Z,120
2017-04-24T08:26:32.097Z,120
2017-04-24T08:27:12.602Z,120
2017-04-24T08:27:53.116Z,120
2017-04-24T08:28:33.633Z,120
2017-04-24T08:29:14.156Z,115
2017-04-24T08:29:54.685Z,115
2017-04-24T08:30:35.197Z,115
2017-04-24T08:31:15.729Z,115
2017-04-24T08:31:56.245Z,115
2017-04-24T08:32:36.774Z,115
2017-04-24T08:33:17.303Z,115
2017-04-24T08:33:57.821Z,115
2017-04-24T08:34:38.356Z,115
2017-04-24T08:35:18.892Z,115
2017-04-24T08:35:59.425Z,115
2017-04-24T08:36:39.942Z,115
2017-04-24T08:37:20.463Z,115
2017-04-24T08:38:00.987Z,115
2017-04-24T08:38:41.512Z,115
2017-04-24T08:39:22.028Z,115
2017-04-24T08:40:02.547Z,115
2017-04-24T08:40:43.067Z,115
2017-04-24T08:41:23.590Z,115
2017-04-24T08:42:04.116Z,115
2017-04-24T08:42:44.663Z,115
2017-04-24T08:43:25.157Z,115
2017-04-24T08:44:05.721Z,115
2017-04-24T08:44:46.211Z,115
2017-04-24T08:45:26.728Z,115
2017-04-24T08:46:07.242Z,115
2017-04-24T08:48:40.866Z,115
2017-04-24T08:49:21.384Z,115
2017-04-24T08:50:01.918Z,115
2017-04-24T08:50:42.436Z,115
2017-04-24T08:51:22.966Z,115
2017-04-24T08:52:03.477Z,115
2017-04-24T08:52:44.000Z,115
2017-04-24T08:53:24.507Z,115
2017-04-24T08:54:05.028Z,110
2017-04-24T08:54:45.547Z,110
2017-04-24T08:55:26.065Z,110
2017-04-24T08:56:06.597Z,115
2017-04-24T08:56:47.112Z,110
2017-04-24T08:57:27.630Z,110
2017-04-24T08:58:08.149Z,110
2017-04-24T08:58:48.671Z,115
2017-04-24T08:59:29.191Z,110
2017-04-24T09:02:02.785Z,115
2017-04-24T09:02:43.298Z,115
2017-04-24T09:03:23.834Z,115
2017-04-24T09:04:04.360Z,115
2017-04-24T09:04:44.855Z,120
2017-04-24T09:05:25.407Z,115
2017-04-24T09:06:05.929Z,115
2017-04-24T09:06:46.444Z,115
2017-04-24T09:07:26.965Z,115
2017-04-24T09:08:07.483Z,115
2017-04-24T09:08:48.013Z,115
2017-04-24T09:09:28.528Z,115
2017-04-24T09:10:09.046Z,115
2017-04-24T09:10:49.565Z,115
2017-04-24T09:11:30.082Z,115
2017-04-24T09:12:10.600Z,115
2017-04-24T09:12:51.131Z,115
2017-04-24T09:13:31.654Z,115
2017-04-24T09:14:12.256Z,115
2017-04-24T09:16:40.935Z,115
2017-04-24T09:17:21.473Z,115
2017-04-24T09:18:01.963Z,115
2017-04-24T09:18:42.511Z,115
2017-04-24T09:19:23.014Z,115
2017-04-24T09:20:03.539Z,115
2017-04-24T09:20:44.105Z,115
2017-04-24T09:21:24.629Z,115
2017-04-24T09:22:05.177Z,115
2017-04-24T09:22:45.649Z,115
2017-04-24T09:23:26.168Z,115
2017-04-24T09:24:06.682Z,115
2017-04-24T09:24:47.214Z,115
2017-04-24T09:25:27.816Z,115
2017-04-24T09:26:08.336Z,115
2017-04-24T09:26:48.889Z,120
2017-04-24T09:27:29.394Z,115
2017-04-24T09:28:10.315Z,120
2017-04-24T09:28:50.829Z,120
2017-04-24T09:29:31.357Z,120
2017-04-24T09:30:11.868Z,120
2017-04-24T09:30:52.387Z,120
2017-04-24T09:31:32.904Z,120
2017-04-24T09:32:13.425Z,120
2017-04-24T09:32:53.943Z,120
2017-04-24T09:33:34.523Z,120
2017-04-24T09:34:15.050Z,120
2017-04-24T09:34:55.561Z,120
2017-04-24T09:35:36.087Z,115
2017-04-24T09:36:16.622Z,120
2017-04-24T09:36:57.170Z,115
2017-04-24T09:37:37.680Z,115
2017-04-24T09:38:18.194Z,115
2017-04-24T09:38:58.711Z,115
2017-04-24T09:39:39.243Z,115
2017-04-24T09:40:19.777Z,115
2017-04-24T09:41:00.301Z,115
2017-04-24T09:41:40.835Z,120
2017-04-24T09:42:21.359Z,110
2017-04-24T09:43:01.889Z,110
2017-04-24T09:43:42.431Z,110
2017-04-24T09:44:22.955Z,115
2017-04-24T09:45:03.478Z,115
2017-04-24T09:45:44.010Z,115
2017-04-24T09:46:25.252Z,115
2017-04-24T09:47:05.777Z,115
2017-04-24T09:47:46.303Z,115
2017-04-24T09:48:26.830Z,115
2017-04-24T09:49:07.330Z,115
2017-04-24T09:49:47.872Z,110
2017-04-24T09:50:28.396Z,110
2017-04-24T09:51:08.930Z,110
2017-04-24T09:51:49.445Z,110
2017-04-24T09:52:29.971Z,110
2017-04-24T09:53:10.492Z,110
2017-04-24T09:53:51.014Z,110
2017-04-24T09:54:31.554Z,110
2017-04-24T09:55:12.077Z,110
2017-04-24T09:55:52.596Z,110
2017-04-24T09:56:33.114Z,110
2017-04-24T09:57:13.637Z,110